Milton, West Virginia
Current Conditions -  °F | °C
As of 5:51 PM on Thursday 27 Nov 2014 (Local Time) from KHTS Reporting Station
Overcast Overcast  
Wind Chill: 29°   Ceiling: 3400
Heat Index: 33°   Visibility: 10mi
Dew Point: 21°   Wind: 5mph
Humidity: 61%   Direction: 280°W
Pressure: 30.3"   Gusts: NA
Location:  38.43°N, 82.13°W
Report Text: KHTS 272251Z 28004KT 10SM BKN034 OVC050 01/M06 A3030 RMK AO2 SLP267 T00061061
Loading
Personal Weather Stations






























Interactive Weather Map New forecast layout! Learn more

10-Day Weather Forecast

Advertisements
Track Severe Weather on mobile